sensor_id;sensor_type;location;lat;lon;timestamp;temperature;humidity
15355;DHT22;7777;52.254;9.618;2023-04-24T00:00:33;13.10;99.90
15355;DHT22;7777;52.254;9.618;2023-04-24T00:02:58;13.10;99.90
15355;DHT22;7777;52.254;9.618;2023-04-24T00:05:24;13.10;99.90
15355;DHT22;7777;52.254;9.618;2023-04-24T00:07:50;13.10;99.90
15355;DHT22;7777;52.254;9.618;2023-04-24T00:10:19;13.10;99.90
15355;DHT22;7777;52.254;9.618;2023-04-24T00:12:45;13.10;99.90
15355;DHT22;7777;52.254;9.618;2023-04-24T00:15:11;13.10;99.90
15355;DHT22;7777;52.254;9.618;2023-04-24T00:17:37;13.10;99.90
15355;DHT22;7777;52.254;9.618;2023-04-24T00:20:03;13.10;99.90
15355;DHT22;7777;52.254;9.618;2023-04-24T00:22:32;13.10;99.90
15355;DHT22;7777;52.254;9.618;2023-04-24T00:24:57;13.10;99.90
15355;DHT22;7777;52.254;9.618;2023-04-24T00:27:23;13.10;99.90
15355;DHT22;7777;52.254;9.618;2023-04-24T00:29:49;13.10;99.90
15355;DHT22;7777;52.254;9.618;2023-04-24T00:32:15;13.10;99.90
15355;DHT22;7777;52.254;9.618;2023-04-24T00:34:41;13.10;99.90
15355;DHT22;7777;52.254;9.618;2023-04-24T00:37:07;13.20;99.90
15355;DHT22;7777;52.254;9.618;2023-04-24T00:39:33;13.20;99.90
15355;DHT22;7777;52.254;9.618;2023-04-24T00:41:59;13.20;99.90
15355;DHT22;7777;52.254;9.618;2023-04-24T00:44:25;13.20;99.90
15355;DHT22;7777;52.254;9.618;2023-04-24T00:46:51;13.20;99.90
15355;DHT22;7777;52.254;9.618;2023-04-24T00:49:20;13.10;99.90
15355;DHT22;7777;52.254;9.618;2023-04-24T00:51:47;13.10;99.90
15355;DHT22;7777;52.254;9.618;2023-04-24T00:54:13;13.10;99.90
15355;DHT22;7777;52.254;9.618;2023-04-24T00:56:40;13.10;99.90
15355;DHT22;7777;52.254;9.618;2023-04-24T00:59:06;13.00;99.90
15355;DHT22;7777;52.254;9.618;2023-04-24T01:01:32;13.00;99.90
15355;DHT22;7777;52.254;9.618;2023-04-24T01:03:58;12.90;99.90
15355;DHT22;7777;52.254;9.618;2023-04-24T01:06:28;12.90;99.90
15355;DHT22;7777;52.254;9.618;2023-04-24T01:08:57;12.80;99.90
15355;DHT22;7777;52.254;9.618;2023-04-24T01:11:24;12.80;99.90
15355;DHT22;7777;52.254;9.618;2023-04-24T01:13:51;12.80;99.90
15355;DHT22;7777;52.254;9.618;2023-04-24T01:16:17;12.70;99.90
15355;DHT22;7777;52.254;9.618;2023-04-24T01:18:46;12.70;99.90
15355;DHT22;7777;52.254;9.618;2023-04-24T01:21:14;12.70;99.90
15355;DHT22;7777;52.254;9.618;2023-04-24T01:23:43;12.60;99.90
15355;DHT22;7777;52.254;9.618;2023-04-24T01:26:09;12.60;99.90
15355;DHT22;7777;52.254;9.618;2023-04-24T01:28:35;12.60;99.90
15355;DHT22;7777;52.254;9.618;2023-04-24T01:31:01;12.60;99.90
15355;DHT22;7777;52.254;9.618;2023-04-24T01:33:26;12.50;99.90
15355;DHT22;7777;52.254;9.618;2023-04-24T01:35:52;12.50;99.90
15355;DHT22;7777;52.254;9.618;2023-04-24T01:38:19;12.40;99.90
15355;DHT22;7777;52.254;9.618;2023-04-24T01:40:44;12.40;99.90
15355;DHT22;7777;52.254;9.618;2023-04-24T01:43:11;12.40;99.90
15355;DHT22;7777;52.254;9.618;2023-04-24T01:45:37;12.30;99.90
15355;DHT22;7777;52.254;9.618;2023-04-24T01:48:07;12.30;99.90
15355;DHT22;7777;52.254;9.618;2023-04-24T01:50:33;12.30;99.90
15355;DHT22;7777;52.254;9.618;2023-04-24T01:52:59;12.20;99.90
15355;DHT22;7777;52.254;9.618;2023-04-24T01:55:24;12.20;99.90
15355;DHT22;7777;52.254;9.618;2023-04-24T01:57:52;12.20;99.90
15355;DHT22;7777;52.254;9.618;2023-04-24T02:00:21;12.20;99.90
15355;DHT22;7777;52.254;9.618;2023-04-24T02:02:48;12.10;99.90
15355;DHT22;7777;52.254;9.618;2023-04-24T02:05:14;12.10;99.90
15355;DHT22;7777;52.254;9.618;2023-04-24T02:07:39;12.10;99.90
15355;DHT22;7777;52.254;9.618;2023-04-24T02:10:05;12.10;99.90
15355;DHT22;7777;52.254;9.618;2023-04-24T02:12:32;12.10;99.90
15355;DHT22;7777;52.254;9.618;2023-04-24T02:14:58;12.00;99.90
15355;DHT22;7777;52.254;9.618;2023-04-24T02:17:23;12.00;99.90
15355;DHT22;7777;52.254;9.618;2023-04-24T02:19:49;12.00;99.90
15355;DHT22;7777;52.254;9.618;2023-04-24T02:22:15;12.00;99.90
15355;DHT22;7777;52.254;9.618;2023-04-24T02:24:41;12.00;99.90
15355;DHT22;7777;52.254;9.618;2023-04-24T02:27:07;12.00;99.90
15355;DHT22;7777;52.254;9.618;2023-04-24T02:29:32;12.00;99.90
15355;DHT22;7777;52.254;9.618;2023-04-24T02:31:58;12.00;99.90
15355;DHT22;7777;52.254;9.618;2023-04-24T02:34:24;12.00;99.90
15355;DHT22;7777;52.254;9.618;2023-04-24T02:36:50;12.00;99.90
15355;DHT22;7777;52.254;9.618;2023-04-24T02:39:15;12.00;99.90
15355;DHT22;7777;52.254;9.618;2023-04-24T02:41:42;12.00;99.90
15355;DHT22;7777;52.254;9.618;2023-04-24T02:44:08;11.90;99.90
15355;DHT22;7777;52.254;9.618;2023-04-24T02:46:34;11.90;99.90
15355;DHT22;7777;52.254;9.618;2023-04-24T02:49:00;11.90;99.90
15355;DHT22;7777;52.254;9.618;2023-04-24T02:51:25;11.90;99.90
15355;DHT22;7777;52.254;9.618;2023-04-24T02:53:52;11.80;99.90
15355;DHT22;7777;52.254;9.618;2023-04-24T02:56:18;11.90;99.90
15355;DHT22;7777;52.254;9.618;2023-04-24T02:58:45;11.90;99.90
15355;DHT22;7777;52.254;9.618;2023-04-24T03:01:10;11.90;99.90
15355;DHT22;7777;52.254;9.618;2023-04-24T03:03:37;11.90;99.90
15355;DHT22;7777;52.254;9.618;2023-04-24T03:06:04;11.90;99.90
15355;DHT22;7777;52.254;9.618;2023-04-24T03:08:34;11.90;99.90
15355;DHT22;7777;52.254;9.618;2023-04-24T03:11:00;11.80;99.90
15355;DHT22;7777;52.254;9.618;2023-04-24T03:13:26;11.90;99.90
15355;DHT22;7777;52.254;9.618;2023-04-24T03:15:51;11.80;99.90
15355;DHT22;7777;52.254;9.618;2023-04-24T03:18:18;11.90;99.90
15355;DHT22;7777;52.254;9.618;2023-04-24T03:20:49;11.80;99.90
15355;DHT22;7777;52.254;9.618;2023-04-24T03:23:15;11.80;99.90
15355;DHT22;7777;52.254;9.618;2023-04-24T03:25:41;11.80;99.90
15355;DHT22;7777;52.254;9.618;2023-04-24T03:28:08;11.80;99.90
15355;DHT22;7777;52.254;9.618;2023-04-24T03:30:34;11.80;99.90
15355;DHT22;7777;52.254;9.618;2023-04-24T03:33:00;11.80;99.90
15355;DHT22;7777;52.254;9.618;2023-04-24T03:35:25;11.90;99.90
15355;DHT22;7777;52.254;9.618;2023-04-24T03:37:51;11.90;99.90
15355;DHT22;7777;52.254;9.618;2023-04-24T03:40:17;11.80;99.90
15355;DHT22;7777;52.254;9.618;2023-04-24T03:42:43;11.80;99.90
15355;DHT22;7777;52.254;9.618;2023-04-24T03:45:09;11.80;99.90
15355;DHT22;7777;52.254;9.618;2023-04-24T03:47:35;11.70;99.90
15355;DHT22;7777;52.254;9.618;2023-04-24T03:50:01;11.70;99.90
15355;DHT22;7777;52.254;9.618;2023-04-24T03:52:27;11.80;99.90
15355;DHT22;7777;52.254;9.618;2023-04-24T03:54:53;11.70;99.90
15355;DHT22;7777;52.254;9.618;2023-04-24T03:57:18;11.70;99.90
15355;DHT22;7777;52.254;9.618;2023-04-24T03:59:44;11.60;99.90
15355;DHT22;7777;52.254;9.618;2023-04-24T04:02:10;11.60;99.90
15355;DHT22;7777;52.254;9.618;2023-04-24T04:04:36;11.60;99.90
15355;DHT22;7777;52.254;9.618;2023-04-24T04:07:01;11.60;99.90
15355;DHT22;7777;52.254;9.618;2023-04-24T04:09:28;11.60;99.90
15355;DHT22;7777;52.254;9.618;2023-04-24T04:11:54;11.60;99.90
15355;DHT22;7777;52.254;9.618;2023-04-24T04:14:21;11.60;99.90
15355;DHT22;7777;52.254;9.618;2023-04-24T04:16:47;11.60;99.90
15355;DHT22;7777;52.254;9.618;2023-04-24T04:19:15;11.60;99.90
15355;DHT22;7777;52.254;9.618;2023-04-24T04:21:45;11.60;99.90
15355;DHT22;7777;52.254;9.618;2023-04-24T04:24:11;11.50;99.90
15355;DHT22;7777;52.254;9.618;2023-04-24T04:26:38;11.60;99.90
15355;DHT22;7777;52.254;9.618;2023-04-24T04:29:04;11.60;99.90
15355;DHT22;7777;52.254;9.618;2023-04-24T04:31:30;11.60;99.90
15355;DHT22;7777;52.254;9.618;2023-04-24T04:34:01;11.60;99.90
15355;DHT22;7777;52.254;9.618;2023-04-24T04:36:26;11.60;99.90
15355;DHT22;7777;52.254;9.618;2023-04-24T04:38:54;11.60;99.90
15355;DHT22;7777;52.254;9.618;2023-04-24T04:41:20;11.50;99.90
15355;DHT22;7777;52.254;9.618;2023-04-24T04:43:46;11.50;99.90
15355;DHT22;7777;52.254;9.618;2023-04-24T04:46:12;11.50;99.90
15355;DHT22;7777;52.254;9.618;2023-04-24T04:48:38;11.50;99.90
15355;DHT22;7777;52.254;9.618;2023-04-24T04:51:04;11.50;99.90
15355;DHT22;7777;52.254;9.618;2023-04-24T04:53:30;11.50;99.90
15355;DHT22;7777;52.254;9.618;2023-04-24T04:55:56;11.50;99.90
15355;DHT22;7777;52.254;9.618;2023-04-24T04:58:22;11.50;99.90
15355;DHT22;7777;52.254;9.618;2023-04-24T05:00:48;11.50;99.90
15355;DHT22;7777;52.254;9.618;2023-04-24T05:03:14;11.50;99.90
15355;DHT22;7777;52.254;9.618;2023-04-24T05:05:39;11.50;99.90
15355;DHT22;7777;52.254;9.618;2023-04-24T05:08:07;11.50;99.90
15355;DHT22;7777;52.254;9.618;2023-04-24T05:10:33;11.50;99.90
15355;DHT22;7777;52.254;9.618;2023-04-24T05:12:59;11.40;99.90
15355;DHT22;7777;52.254;9.618;2023-04-24T05:15:25;11.50;99.90
15355;DHT22;7777;52.254;9.618;2023-04-24T05:17:50;11.50;99.90
15355;DHT22;7777;52.254;9.618;2023-04-24T05:20:16;11.50;99.90
15355;DHT22;7777;52.254;9.618;2023-04-24T05:22:42;11.50;99.90
15355;DHT22;7777;52.254;9.618;2023-04-24T05:25:08;11.50;99.90
15355;DHT22;7777;52.254;9.618;2023-04-24T05:27:34;11.60;99.90
15355;DHT22;7777;52.254;9.618;2023-04-24T05:30:00;11.60;99.90
15355;DHT22;7777;52.254;9.618;2023-04-24T05:32:25;11.60;99.90
15355;DHT22;7777;52.254;9.618;2023-04-24T05:34:52;11.60;99.90
15355;DHT22;7777;52.254;9.618;2023-04-24T05:37:18;11.70;99.90
15355;DHT22;7777;52.254;9.618;2023-04-24T05:39:43;11.70;99.90
15355;DHT22;7777;52.254;9.618;2023-04-24T05:42:09;11.70;99.90
15355;DHT22;7777;52.254;9.618;2023-04-24T05:44:35;11.70;99.90
15355;DHT22;7777;52.254;9.618;2023-04-24T05:47:01;11.70;99.90
15355;DHT22;7777;52.254;9.618;2023-04-24T05:49:27;11.80;99.90
15355;DHT22;7777;52.254;9.618;2023-04-24T05:51:53;11.80;99.90
15355;DHT22;7777;52.254;9.618;2023-04-24T05:54:18;11.80;99.90
15355;DHT22;7777;52.254;9.618;2023-04-24T05:56:44;11.80;99.90
15355;DHT22;7777;52.254;9.618;2023-04-24T05:59:10;11.80;99.90
15355;DHT22;7777;52.254;9.618;2023-04-24T06:01:36;11.80;99.90
15355;DHT22;7777;52.254;9.618;2023-04-24T06:04:03;11.80;99.90
15355;DHT22;7777;52.254;9.618;2023-04-24T06:06:29;11.80;99.90
15355;DHT22;7777;52.254;9.618;2023-04-24T06:08:55;11.80;99.90
15355;DHT22;7777;52.254;9.618;2023-04-24T06:11:21;11.80;99.90
15355;DHT22;7777;52.254;9.618;2023-04-24T06:13:50;11.80;99.90
15355;DHT22;7777;52.254;9.618;2023-04-24T06:16:15;11.80;99.90
15355;DHT22;7777;52.254;9.618;2023-04-24T06:18:41;11.70;99.90
15355;DHT22;7777;52.254;9.618;2023-04-24T06:21:07;11.70;99.90
15355;DHT22;7777;52.254;9.618;2023-04-24T06:23:33;11.80;99.90
15355;DHT22;7777;52.254;9.618;2023-04-24T06:25:59;11.80;99.90
15355;DHT22;7777;52.254;9.618;2023-04-24T06:28:25;11.80;99.90
15355;DHT22;7777;52.254;9.618;2023-04-24T06:30:51;11.90;99.90
15355;DHT22;7777;52.254;9.618;2023-04-24T06:33:17;11.90;99.90
15355;DHT22;7777;52.254;9.618;2023-04-24T06:35:43;11.90;99.90
15355;DHT22;7777;52.254;9.618;2023-04-24T06:38:08;12.00;99.90
15355;DHT22;7777;52.254;9.618;2023-04-24T06:40:34;12.00;99.90
15355;DHT22;7777;52.254;9.618;2023-04-24T06:43:00;12.10;99.90
15355;DHT22;7777;52.254;9.618;2023-04-24T06:45:28;12.10;99.90
15355;DHT22;7777;52.254;9.618;2023-04-24T06:47:55;12.10;99.90
15355;DHT22;7777;52.254;9.618;2023-04-24T06:50:21;12.10;99.90
15355;DHT22;7777;52.254;9.618;2023-04-24T06:52:47;12.10;99.90
15355;DHT22;7777;52.254;9.618;2023-04-24T06:55:13;12.10;99.90
15355;DHT22;7777;52.254;9.618;2023-04-24T06:57:40;12.10;99.90
15355;DHT22;7777;52.254;9.618;2023-04-24T07:00:06;12.10;99.90
15355;DHT22;7777;52.254;9.618;2023-04-24T07:02:34;12.10;99.90
15355;DHT22;7777;52.254;9.618;2023-04-24T07:05:00;12.00;99.90
15355;DHT22;7777;52.254;9.618;2023-04-24T07:07:26;12.00;99.90
15355;DHT22;7777;52.254;9.618;2023-04-24T07:09:53;12.00;99.90
15355;DHT22;7777;52.254;9.618;2023-04-24T07:12:19;12.00;99.90
15355;DHT22;7777;52.254;9.618;2023-04-24T07:14:47;12.00;99.90
15355;DHT22;7777;52.254;9.618;2023-04-24T07:17:13;12.00;99.90
15355;DHT22;7777;52.254;9.618;2023-04-24T07:19:40;12.10;99.90
15355;DHT22;7777;52.254;9.618;2023-04-24T07:22:06;12.10;99.90
15355;DHT22;7777;52.254;9.618;2023-04-24T07:24:32;12.10;99.90
15355;DHT22;7777;52.254;9.618;2023-04-24T07:26:58;12.20;99.90
15355;DHT22;7777;52.254;9.618;2023-04-24T07:29:24;12.20;99.90
15355;DHT22;7777;52.254;9.618;2023-04-24T07:31:50;12.30;99.90
15355;DHT22;7777;52.254;9.618;2023-04-24T07:34:16;12.30;99.90
15355;DHT22;7777;52.254;9.618;2023-04-24T07:36:42;12.40;99.90
15355;DHT22;7777;52.254;9.618;2023-04-24T07:39:07;12.40;99.90
15355;DHT22;7777;52.254;9.618;2023-04-24T07:41:34;12.50;99.90
15355;DHT22;7777;52.254;9.618;2023-04-24T07:43:59;12.60;99.90
15355;DHT22;7777;52.254;9.618;2023-04-24T07:46:25;12.70;99.90
15355;DHT22;7777;52.254;9.618;2023-04-24T07:48:52;12.70;99.90
15355;DHT22;7777;52.254;9.618;2023-04-24T07:51:19;12.80;99.90
15355;DHT22;7777;52.254;9.618;2023-04-24T07:53:46;12.80;99.90
15355;DHT22;7777;52.254;9.618;2023-04-24T07:56:12;12.90;99.90
15355;DHT22;7777;52.254;9.618;2023-04-24T07:58:38;12.90;99.90
15355;DHT22;7777;52.254;9.618;2023-04-24T08:01:05;12.90;99.90
15355;DHT22;7777;52.254;9.618;2023-04-24T08:03:31;12.90;99.90
15355;DHT22;7777;52.254;9.618;2023-04-24T08:05:56;12.90;99.90
15355;DHT22;7777;52.254;9.618;2023-04-24T08:08:22;12.80;99.90
15355;DHT22;7777;52.254;9.618;2023-04-24T08:10:48;12.70;99.90
15355;DHT22;7777;52.254;9.618;2023-04-24T08:13:14;12.70;99.90
15355;DHT22;7777;52.254;9.618;2023-04-24T08:15:40;12.70;99.90
15355;DHT22;7777;52.254;9.618;2023-04-24T08:18:06;12.70;99.90
15355;DHT22;7777;52.254;9.618;2023-04-24T08:20:32;12.60;99.90
15355;DHT22;7777;52.254;9.618;2023-04-24T08:22:58;12.60;99.90
15355;DHT22;7777;52.254;9.618;2023-04-24T08:25:23;12.60;99.90
15355;DHT22;7777;52.254;9.618;2023-04-24T08:27:50;12.60;99.90
15355;DHT22;7777;52.254;9.618;2023-04-24T08:30:16;12.70;99.90
15355;DHT22;7777;52.254;9.618;2023-04-24T08:32:42;12.70;99.90
15355;DHT22;7777;52.254;9.618;2023-04-24T08:35:08;12.80;99.90
15355;DHT22;7777;52.254;9.618;2023-04-24T08:37:35;12.80;99.90
15355;DHT22;7777;52.254;9.618;2023-04-24T08:40:03;12.80;99.90
15355;DHT22;7777;52.254;9.618;2023-04-24T08:42:33;12.80;99.90
15355;DHT22;7777;52.254;9.618;2023-04-24T08:44:59;12.80;99.90
15355;DHT22;7777;52.254;9.618;2023-04-24T08:47:25;12.90;99.90
15355;DHT22;7777;52.254;9.618;2023-04-24T08:49:53;12.90;99.90
15355;DHT22;7777;52.254;9.618;2023-04-24T08:52:20;12.90;99.90
15355;DHT22;7777;52.254;9.618;2023-04-24T08:54:47;12.90;99.90
15355;DHT22;7777;52.254;9.618;2023-04-24T08:57:14;12.90;99.90
15355;DHT22;7777;52.254;9.618;2023-04-24T08:59:40;12.90;99.90
15355;DHT22;7777;52.254;9.618;2023-04-24T09:02:10;13.00;99.90
15355;DHT22;7777;52.254;9.618;2023-04-24T09:04:36;13.00;99.90
15355;DHT22;7777;52.254;9.618;2023-04-24T09:07:03;13.10;99.90
15355;DHT22;7777;52.254;9.618;2023-04-24T09:09:32;13.10;99.90
15355;DHT22;7777;52.254;9.618;2023-04-24T09:11:58;13.10;99.90
15355;DHT22;7777;52.254;9.618;2023-04-24T09:14:26;13.10;99.90
15355;DHT22;7777;52.254;9.618;2023-04-24T09:16:52;13.10;99.90
15355;DHT22;7777;52.254;9.618;2023-04-24T09:19:17;13.10;99.90
15355;DHT22;7777;52.254;9.618;2023-04-24T09:21:46;13.10;99.90
15355;DHT22;7777;52.254;9.618;2023-04-24T09:24:18;13.00;99.90
15355;DHT22;7777;52.254;9.618;2023-04-24T09:26:46;13.00;99.90
15355;DHT22;7777;52.254;9.618;2023-04-24T09:29:16;13.00;99.90
15355;DHT22;7777;52.254;9.618;2023-04-24T09:31:43;13.00;99.90
15355;DHT22;7777;52.254;9.618;2023-04-24T09:34:09;13.00;99.90
15355;DHT22;7777;52.254;9.618;2023-04-24T09:36:40;13.00;99.90
15355;DHT22;7777;52.254;9.618;2023-04-24T09:39:13;13.00;99.90
15355;DHT22;7777;52.254;9.618;2023-04-24T09:44:26;13.10;99.90
15355;DHT22;7777;52.254;9.618;2023-04-24T09:46:55;13.10;99.90
15355;DHT22;7777;52.254;9.618;2023-04-24T09:49:28;13.20;99.90
15355;DHT22;7777;52.254;9.618;2023-04-24T09:52:11;13.20;99.90
15355;DHT22;7777;52.254;9.618;2023-04-24T09:54:38;13.20;99.90
15355;DHT22;7777;52.254;9.618;2023-04-24T09:57:04;13.20;99.90
15355;DHT22;7777;52.254;9.618;2023-04-24T09:59:30;13.20;99.90
15355;DHT22;7777;52.254;9.618;2023-04-24T10:01:56;13.20;99.90
15355;DHT22;7777;52.254;9.618;2023-04-24T10:04:26;13.20;99.90
15355;DHT22;7777;52.254;9.618;2023-04-24T10:06:54;13.20;99.90
15355;DHT22;7777;52.254;9.618;2023-04-24T10:09:24;13.20;99.90
15355;DHT22;7777;52.254;9.618;2023-04-24T10:11:52;13.30;99.90
15355;DHT22;7777;52.254;9.618;2023-04-24T10:14:20;13.30;99.90
15355;DHT22;7777;52.254;9.618;2023-04-24T10:16:48;13.30;99.90
15355;DHT22;7777;52.254;9.618;2023-04-24T10:19:15;13.20;99.90
15355;DHT22;7777;52.254;9.618;2023-04-24T10:21:43;13.20;99.90
15355;DHT22;7777;52.254;9.618;2023-04-24T10:24:18;13.10;99.90
15355;DHT22;7777;52.254;9.618;2023-04-24T10:26:47;13.10;99.90
15355;DHT22;7777;52.254;9.618;2023-04-24T10:29:16;13.10;99.90
15355;DHT22;7777;52.254;9.618;2023-04-24T10:31:43;13.00;99.90
15355;DHT22;7777;52.254;9.618;2023-04-24T10:34:12;12.90;99.90
15355;DHT22;7777;52.254;9.618;2023-04-24T10:36:44;13.00;99.90
15355;DHT22;7777;52.254;9.618;2023-04-24T10:39:13;12.90;99.90
15355;DHT22;7777;52.254;9.618;2023-04-24T10:41:43;12.90;99.90
15355;DHT22;7777;52.254;9.618;2023-04-24T10:44:11;12.90;99.90
15355;DHT22;7777;52.254;9.618;2023-04-24T10:46:39;12.90;99.90
15355;DHT22;7777;52.254;9.618;2023-04-24T10:49:09;12.90;99.90
15355;DHT22;7777;52.254;9.618;2023-04-24T10:51:49;12.90;99.90
15355;DHT22;7777;52.254;9.618;2023-04-24T10:54:28;12.90;99.90
15355;DHT22;7777;52.254;9.618;2023-04-24T10:59:52;12.80;99.90
15355;DHT22;7777;52.254;9.618;2023-04-24T11:02:39;12.80;99.90
15355;DHT22;7777;52.254;9.618;2023-04-24T11:05:09;12.80;99.90
15355;DHT22;7777;52.254;9.618;2023-04-24T11:08:14;12.80;99.90
15355;DHT22;7777;52.254;9.618;2023-04-24T11:10:45;12.80;99.90
15355;DHT22;7777;52.254;9.618;2023-04-24T11:13:16;12.90;99.90
15355;DHT22;7777;52.254;9.618;2023-04-24T11:15:42;13.00;99.90
15355;DHT22;7777;52.254;9.618;2023-04-24T11:18:13;13.00;99.90
15355;DHT22;7777;52.254;9.618;2023-04-24T11:20:44;13.00;99.90
15355;DHT22;7777;52.254;9.618;2023-04-24T11:23:12;13.10;99.90
15355;DHT22;7777;52.254;9.618;2023-04-24T11:25:38;13.10;99.90
15355;DHT22;7777;52.254;9.618;2023-04-24T11:28:05;13.20;99.90
15355;DHT22;7777;52.254;9.618;2023-04-24T11:30:32;13.40;99.90
15355;DHT22;7777;52.254;9.618;2023-04-24T11:33:03;13.60;99.90
15355;DHT22;7777;52.254;9.618;2023-04-24T11:35:30;13.70;99.70
15355;DHT22;7777;52.254;9.618;2023-04-24T11:38:02;13.80;99.90
15355;DHT22;7777;52.254;9.618;2023-04-24T11:40:28;14.00;99.90
15355;DHT22;7777;52.254;9.618;2023-04-24T11:42:54;14.20;99.90
15355;DHT22;7777;52.254;9.618;2023-04-24T11:45:26;14.30;99.90
15355;DHT22;7777;52.254;9.618;2023-04-24T11:47:57;14.40;99.50
15355;DHT22;7777;52.254;9.618;2023-04-24T11:50:26;14.40;99.40
15355;DHT22;7777;52.254;9.618;2023-04-24T11:52:53;14.50;99.90
15355;DHT22;7777;52.254;9.618;2023-04-24T11:57:46;14.60;99.90
15355;DHT22;7777;52.254;9.618;2023-04-24T12:00:33;14.60;99.90
15355;DHT22;7777;52.254;9.618;2023-04-24T12:03:05;14.50;99.90
15355;DHT22;7777;52.254;9.618;2023-04-24T12:05:38;14.40;99.30
15355;DHT22;7777;52.254;9.618;2023-04-24T12:08:04;14.30;99.90
15355;DHT22;7777;52.254;9.618;2023-04-24T12:10:31;14.20;99.90
15355;DHT22;7777;52.254;9.618;2023-04-24T12:12:58;14.00;99.80
15355;DHT22;7777;52.254;9.618;2023-04-24T12:15:25;13.80;99.90
15355;DHT22;7777;52.254;9.618;2023-04-24T12:17:53;13.80;99.90
15355;DHT22;7777;52.254;9.618;2023-04-24T12:20:28;13.70;99.90
15355;DHT22;7777;52.254;9.618;2023-04-24T12:22:56;13.70;99.40
15355;DHT22;7777;52.254;9.618;2023-04-24T12:25:28;13.70;99.90
15355;DHT22;7777;52.254;9.618;2023-04-24T12:28:16;13.60;99.90
15355;DHT22;7777;52.254;9.618;2023-04-24T12:30:44;13.70;99.80
15355;DHT22;7777;52.254;9.618;2023-04-24T12:33:17;13.70;99.80
15355;DHT22;7777;52.254;9.618;2023-04-24T12:35:51;13.80;99.90
15355;DHT22;7777;52.254;9.618;2023-04-24T12:38:22;13.80;99.70
15355;DHT22;7777;52.254;9.618;2023-04-24T12:41:05;13.80;99.90
15355;DHT22;7777;52.254;9.618;2023-04-24T12:43:35;13.70;99.70
15355;DHT22;7777;52.254;9.618;2023-04-24T12:46:02;13.60;99.90
15355;DHT22;7777;52.254;9.618;2023-04-24T12:48:29;13.50;99.60
15355;DHT22;7777;52.254;9.618;2023-04-24T12:50:57;13.40;99.50
15355;DHT22;7777;52.254;9.618;2023-04-24T12:53:26;13.30;99.60
15355;DHT22;7777;52.254;9.618;2023-04-24T12:55:54;13.00;99.60
15355;DHT22;7777;52.254;9.618;2023-04-24T12:58:21;12.80;99.90
15355;DHT22;7777;52.254;9.618;2023-04-24T13:00:47;12.80;99.90
15355;DHT22;7777;52.254;9.618;2023-04-24T13:03:13;12.70;99.90
15355;DHT22;7777;52.254;9.618;2023-04-24T13:05:39;12.70;99.90
15355;DHT22;7777;52.254;9.618;2023-04-24T13:08:05;12.60;99.90
15355;DHT22;7777;52.254;9.618;2023-04-24T13:10:31;12.60;99.90
15355;DHT22;7777;52.254;9.618;2023-04-24T13:12:57;12.50;99.90
15355;DHT22;7777;52.254;9.618;2023-04-24T13:15:23;12.50;99.90
15355;DHT22;7777;52.254;9.618;2023-04-24T13:17:51;12.40;99.90
15355;DHT22;7777;52.254;9.618;2023-04-24T13:20:18;12.30;99.90
15355;DHT22;7777;52.254;9.618;2023-04-24T13:22:44;12.30;99.90
15355;DHT22;7777;52.254;9.618;2023-04-24T13:25:13;12.30;99.90
15355;DHT22;7777;52.254;9.618;2023-04-24T13:27:42;12.30;99.90
15355;DHT22;7777;52.254;9.618;2023-04-24T13:30:08;12.30;99.90
15355;DHT22;7777;52.254;9.618;2023-04-24T13:32:34;12.30;99.90
15355;DHT22;7777;52.254;9.618;2023-04-24T13:35:00;12.30;99.90
15355;DHT22;7777;52.254;9.618;2023-04-24T13:37:26;12.30;99.90
15355;DHT22;7777;52.254;9.618;2023-04-24T13:39:52;12.10;99.90
15355;DHT22;7777;52.254;9.618;2023-04-24T13:42:17;12.00;99.90
15355;DHT22;7777;52.254;9.618;2023-04-24T13:44:44;12.00;99.90
15355;DHT22;7777;52.254;9.618;2023-04-24T13:47:09;11.90;99.90
15355;DHT22;7777;52.254;9.618;2023-04-24T13:49:35;11.90;99.90
15355;DHT22;7777;52.254;9.618;2023-04-24T13:52:02;11.80;99.90
15355;DHT22;7777;52.254;9.618;2023-04-24T13:54:28;11.80;99.90
15355;DHT22;7777;52.254;9.618;2023-04-24T13:56:57;11.80;99.90
15355;DHT22;7777;52.254;9.618;2023-04-24T13:59:23;11.70;99.90
15355;DHT22;7777;52.254;9.618;2023-04-24T14:01:49;11.70;99.90
15355;DHT22;7777;52.254;9.618;2023-04-24T14:04:15;11.70;99.90
15355;DHT22;7777;52.254;9.618;2023-04-24T14:06:41;11.70;99.90
15355;DHT22;7777;52.254;9.618;2023-04-24T14:09:07;11.70;99.90
15355;DHT22;7777;52.254;9.618;2023-04-24T14:11:34;11.70;99.90
15355;DHT22;7777;52.254;9.618;2023-04-24T14:14:00;11.60;99.90
15355;DHT22;7777;52.254;9.618;2023-04-24T14:16:25;11.60;99.90
15355;DHT22;7777;52.254;9.618;2023-04-24T14:18:51;11.60;99.90
15355;DHT22;7777;52.254;9.618;2023-04-24T14:21:17;11.60;99.90
15355;DHT22;7777;52.254;9.618;2023-04-24T14:23:42;11.60;99.90
15355;DHT22;7777;52.254;9.618;2023-04-24T14:26:09;11.60;99.90
15355;DHT22;7777;52.254;9.618;2023-04-24T14:28:35;11.50;99.90
15355;DHT22;7777;52.254;9.618;2023-04-24T14:31:01;11.50;99.90
15355;DHT22;7777;52.254;9.618;2023-04-24T14:33:26;11.50;99.90
15355;DHT22;7777;52.254;9.618;2023-04-24T14:36:12;11.50;99.90
15355;DHT22;7777;52.254;9.618;2023-04-24T14:38:38;11.40;99.90
15355;DHT22;7777;52.254;9.618;2023-04-24T14:41:04;11.30;99.90
15355;DHT22;7777;52.254;9.618;2023-04-24T14:43:35;11.30;99.90
15355;DHT22;7777;52.254;9.618;2023-04-24T14:46:01;11.30;99.90
15355;DHT22;7777;52.254;9.618;2023-04-24T14:48:27;11.30;99.90
15355;DHT22;7777;52.254;9.618;2023-04-24T14:50:53;11.30;99.90
15355;DHT22;7777;52.254;9.618;2023-04-24T14:53:18;11.20;99.90
15355;DHT22;7777;52.254;9.618;2023-04-24T14:55:44;11.30;99.90
15355;DHT22;7777;52.254;9.618;2023-04-24T14:58:10;11.30;99.90
15355;DHT22;7777;52.254;9.618;2023-04-24T15:00:36;11.20;99.90
15355;DHT22;7777;52.254;9.618;2023-04-24T15:03:02;11.30;99.90
15355;DHT22;7777;52.254;9.618;2023-04-24T15:05:28;11.30;99.90
15355;DHT22;7777;52.254;9.618;2023-04-24T15:07:53;11.30;99.90
15355;DHT22;7777;52.254;9.618;2023-04-24T15:10:19;11.20;99.90
15355;DHT22;7777;52.254;9.618;2023-04-24T15:12:49;11.20;99.90
15355;DHT22;7777;52.254;9.618;2023-04-24T15:15:15;11.20;99.90
15355;DHT22;7777;52.254;9.618;2023-04-24T15:17:40;11.20;99.90
15355;DHT22;7777;52.254;9.618;2023-04-24T15:20:06;11.10;99.90
15355;DHT22;7777;52.254;9.618;2023-04-24T15:22:33;11.10;99.90
15355;DHT22;7777;52.254;9.618;2023-04-24T15:24:59;11.10;99.90
15355;DHT22;7777;52.254;9.618;2023-04-24T15:27:24;11.10;99.90
15355;DHT22;7777;52.254;9.618;2023-04-24T15:29:50;11.10;99.90
15355;DHT22;7777;52.254;9.618;2023-04-24T15:32:16;11.20;99.90
15355;DHT22;7777;52.254;9.618;2023-04-24T15:34:41;11.20;99.90
15355;DHT22;7777;52.254;9.618;2023-04-24T15:37:07;11.20;99.90
15355;DHT22;7777;52.254;9.618;2023-04-24T15:39:33;11.20;99.90
15355;DHT22;7777;52.254;9.618;2023-04-24T15:41:59;11.20;99.90
15355;DHT22;7777;52.254;9.618;2023-04-24T15:44:25;11.30;99.90
15355;DHT22;7777;52.254;9.618;2023-04-24T15:46:51;11.30;99.90
15355;DHT22;7777;52.254;9.618;2023-04-24T15:49:17;11.20;99.90
15355;DHT22;7777;52.254;9.618;2023-04-24T15:51:43;11.20;99.90